CFC8 weather

Flamboro Centre Airport
Flamborough, Ontario, Canada

Public forecast

Using degrees Celsius for public forecast. Weather courtesy of forecast.io.

Closest aviation weather report (METAR) to Flamboro Centre Airport

Closest report is John C. Munro Hamilton International Airport, 11.9 nm (22.0 km) S. Retrieved 2019/10/21 13:36 UTC (3 minutes ago):

CYHM 211336Z 06009KT 15SM FEW180 BKN250 12/12 A3005 RMK AC2CI5 SLP181

Closest aviation forecast (TAF) to Flamboro Centre Airport

Closest forecast is John C. Munro Hamilton International Airport, 11.9 nm (22.0 km) S. Retrieved 2019/10/21 12:39 UTC (60 minutes ago):

TAF CYHM 211138Z 2112/2212 06008KT 1/2SM FG OVC003 TEMPO 2112/2115 6SM BR SCT003 FM211500 06012G22KT P6SM FEW020 FM211800 06012G22KT P6SM FEW020 BKN220 FM220100 08012KT P6SM SCT080 BKN200 FM220300 12010KT P6SM BKN050 OVC180 FM220500 15010KT 6SM -SHRA BR OVC020 FM221000 17015KT 5SM -SHRA BR SCT008 OVC015 PROB30 2210/2212 3SM -SHRA BR OVC008 RMK NXT FCST BY 211800Z